West Yellowstone, MT

6:57 PM MDT on April 25, 2017 (GMT -0600)
Yellowstone | | Change Station
Active Advisory: Special Statement

Elev 6650 ft 44.69 °N, 111.12 °W | Updated 7 minutes ago

Clear
Clear
41 °F
Feels Like 39 °F
N
4
Wind Variable Wind from WSW

Today
High -- | Low -- °F
--% Chance of Precip.
Yesterday
High -- | Low -- °F
Precip. -- in
Pressure 29.81 in
Visibility 10.0 miles
Clouds Clear
Windchill 39 °F
Dew Point 30 °F
Humidity 65%
Rainfall 0.56 in
Snow Depth Not available.
6:23 AM 8:22 PM
Waning Crescent, 0% visible
METAR KWYS 260050Z AUTO 25003KT 10SM CLR 05/M01 A2981 RMK AO2
Pressure 29.81 in
Visibility 10.0 miles
Clouds Clear
Windchill 39 °F
Dew Point 30 °F
Humidity 65%
Rainfall 0.56 in
Snow Depth Not available.
6:23 AM 8:22 PM
Waning Crescent, 0% visible
METAR KWYS 260050Z AUTO 25003KT 10SM CLR 05/M01 A2981 RMK AO2

Get Your Daily Forecast Email!

Thanks for signing up!

Be on the lookout for a verification email in your inbox.

You'll start receiving severe weather alerts in your inbox..

×

10-Day Weather Forecast

Almanac

Astronomy

Apr. 25, 2017 Rise Set
Actual Time
Civil Twilight
Nautical Twilight
Astronomical Twilight
Moon
Length of Visible Light
Length of Day
Tomorrow will be .
, % of the Moon is Illuminated

Today's Extremes

State Highs State Lows

Community

WunderPhotos

WunderBlog® & News

Nearby

Air Quality

  Air Quality AQ Index Pollutant
Not available.

Snow Depth

Station Depth Elevation

Earthquake Activity

City Distance Mag. Time & Date
Minimum magnitude displayed is 2.5.

Coastal Water Temperatures

Place Temperature

Stations

Nearby Weather Stations

Station Location Temp. Windchill Dew Point Humidity Wind Precip. Elev Updated Type
                   

Watches & Warnings

Special Statement
Issued: 6:29 PM MDT Apr. 25, 2017 – National Weather Service

... Significant weather advisory for east central Gallatin County
until 715 PM MDT...

At 629 PM MDT, Doppler radar was tracking a strong thunderstorm near
Bozeman, moving southeast at 20 mph.

Dime size hail and winds in excess of 30 mph will be possible with
this storm.

Locations impacted include...
Bozeman, Gallatin Gateway, Four Corners and Bozeman Hot Springs.

Precautionary/preparedness actions...

Torrential rainfall is also occurring with this storm, and may lead
to localized flooding. Do not drive your vehicle through flooded
roadways.

Frequent cloud to ground lightning is occurring with this storm.
Lightning can strike 10 miles away from a thunderstorm. Seek a safe
shelter inside a building or vehicle.


Lat... Lon 4558 11130 4567 11123 4569 11104 4566 11079
      4560 11080 4559 11083 4559 11086 4553 11086
      4552 11092 4535 11093 4534 11105
time... Mot... loc 0029z 293deg 16kt 4558 11100


Janglin